createdAt,value
2023-05-01T00:01:30.592Z,10.40
2023-05-01T00:03:58.013Z,10.70
2023-05-01T00:06:25.399Z,13.23
2023-05-01T00:08:52.459Z,9.27
2023-05-01T00:11:19.513Z,10.40
2023-05-01T00:13:46.533Z,9.48
2023-05-01T00:16:13.648Z,10.43
2023-05-01T00:18:40.718Z,12.07
2023-05-01T00:21:07.651Z,11.15
2023-05-01T00:23:34.660Z,11.02
2023-05-01T00:26:01.741Z,9.98
2023-05-01T00:28:29.199Z,13.80
2023-05-01T00:30:57.464Z,12.52
2023-05-01T00:33:24.469Z,14.95
2023-05-01T00:35:52.821Z,11.95
2023-05-01T00:38:19.880Z,14.18
2023-05-01T00:40:47.853Z,11.57
2023-05-01T00:43:14.964Z,12.75
2023-05-01T00:45:46.198Z,12.43
2023-05-01T00:48:13.583Z,14.85
2023-05-01T00:50:41.763Z,14.38
2023-05-01T00:53:08.812Z,18.42
2023-05-01T00:55:36.233Z,11.32
2023-05-01T00:58:03.829Z,13.38
2023-05-01T01:00:31.110Z,10.77
2023-05-01T01:02:58.339Z,14.15
2023-05-01T01:05:28.414Z,13.43
2023-05-01T01:08:21.971Z,11.05
2023-05-01T01:11:11.876Z,14.15
2023-05-01T01:13:57.343Z,13.32
2023-05-01T01:16:51.393Z,10.57
2023-05-01T01:19:22.191Z,15.18
2023-05-01T01:21:55.707Z,11.52
2023-05-01T01:24:51.275Z,10.05
2023-05-01T01:28:04.036Z,13.48
2023-05-01T01:31:12.193Z,12.40
2023-05-01T01:33:51.675Z,12.82
2023-05-01T01:36:47.475Z,11.07
2023-05-01T01:39:39.189Z,13.27
2023-05-01T01:42:12.375Z,10.23
2023-05-01T01:45:05.121Z,12.27
2023-05-01T01:47:34.365Z,13.30
2023-05-01T01:50:05.451Z,13.45
2023-05-01T01:52:33.875Z,14.45
2023-05-01T01:55:12.892Z,12.90
2023-05-01T01:57:43.902Z,14.55
2023-05-01T02:00:12.959Z,15.35
2023-05-01T02:02:41.375Z,13.10
2023-05-01T02:05:12.125Z,15.60
2023-05-01T02:07:41.054Z,15.40
2023-05-01T02:10:14.070Z,15.77
2023-05-01T02:12:46.443Z,17.87
2023-05-01T02:15:15.928Z,14.70
2023-05-01T02:17:42.975Z,15.20
2023-05-01T02:20:12.755Z,13.27
2023-05-01T02:22:44.248Z,15.45
2023-05-01T02:25:13.367Z,15.67
2023-05-01T02:28:14.595Z,13.52
2023-05-01T02:30:41.725Z,14.65
2023-05-01T02:33:09.164Z,12.88
2023-05-01T02:35:49.739Z,13.93
2023-05-01T02:38:17.261Z,10.98
2023-05-01T02:40:56.089Z,16.50
2023-05-01T02:43:24.134Z,17.70
2023-05-01T02:45:52.905Z,13.57
2023-05-01T02:48:24.954Z,14.03
2023-05-01T02:50:53.959Z,16.17
2023-05-01T02:53:22.363Z,17.47
2023-05-01T02:55:50.673Z,14.07
2023-05-01T02:58:19.416Z,13.30
2023-05-01T03:00:49.564Z,15.13
2023-05-01T03:03:17.561Z,15.23
2023-05-01T03:05:44.599Z,15.60
2023-05-01T03:08:11.638Z,12.17
2023-05-01T03:10:44.685Z,14.97
2023-05-01T03:13:11.988Z,15.45
2023-05-01T03:15:39.509Z,18.27
2023-05-01T03:18:07.111Z,16.10
2023-05-01T03:20:34.382Z,16.63
2023-05-01T03:23:01.696Z,13.47
2023-05-01T03:25:28.676Z,14.73
2023-05-01T03:27:55.625Z,14.23
2023-05-01T03:30:22.578Z,15.27
2023-05-01T03:32:49.793Z,12.30
2023-05-01T03:35:17.006Z,14.27
2023-05-01T03:37:44.094Z,15.37
2023-05-01T03:40:13.673Z,14.10
2023-05-01T03:42:40.650Z,15.00
2023-05-01T03:45:08.938Z,13.27
2023-05-01T03:47:35.915Z,18.10
2023-05-01T03:50:03.590Z,16.33
2023-05-01T03:52:30.596Z,15.60
2023-05-01T03:54:57.563Z,14.90
2023-05-01T03:57:24.901Z,13.50
2023-05-01T03:59:51.885Z,14.00
2023-05-01T04:02:19.048Z,14.23
2023-05-01T04:04:45.995Z,16.57
2023-05-01T04:07:13.859Z,19.90
2023-05-01T04:09:40.820Z,18.77
2023-05-01T04:12:07.760Z,17.02
2023-05-01T04:14:34.785Z,19.05
2023-05-01T04:17:02.003Z,18.13
2023-05-01T04:19:28.988Z,20.33
2023-05-01T04:21:55.926Z,22.48
2023-05-01T04:24:23.156Z,17.57
2023-05-01T04:26:50.474Z,21.27
2023-05-01T04:29:17.461Z,20.70
2023-05-01T04:31:44.786Z,23.27
2023-05-01T04:34:11.811Z,20.13
2023-05-01T04:36:38.858Z,23.50
2023-05-01T04:39:06.405Z,25.43
2023-05-01T04:41:33.408Z,25.07
2023-05-01T04:44:00.442Z,24.70
2023-05-01T04:46:27.485Z,28.67
2023-05-01T04:48:54.520Z,26.87
2023-05-01T04:51:21.542Z,28.90
2023-05-01T04:53:48.806Z,31.40
2023-05-01T04:56:15.810Z,28.13
2023-05-01T04:58:42.769Z,31.10
2023-05-01T05:01:10.306Z,38.00
2023-05-01T05:03:37.331Z,38.03
2023-05-01T05:06:04.892Z,41.27
2023-05-01T05:08:32.078Z,43.63
2023-05-01T05:11:00.071Z,40.20
2023-05-01T05:13:28.197Z,47.10
2023-05-01T05:15:55.396Z,45.67
2023-05-01T05:18:22.608Z,48.77
2023-05-01T05:20:49.780Z,45.07
2023-05-01T05:23:16.783Z,51.73
2023-05-01T05:25:43.754Z,48.73
2023-05-01T05:28:10.740Z,47.83
2023-05-01T05:30:37.669Z,50.10
2023-05-01T05:33:05.345Z,50.53
2023-05-01T05:35:32.365Z,55.17
2023-05-01T05:37:59.486Z,55.40
2023-05-01T05:40:26.466Z,58.85
2023-05-01T05:42:53.650Z,59.57
2023-05-01T05:45:20.872Z,54.93
2023-05-01T05:47:47.813Z,59.47
2023-05-01T05:50:15.177Z,61.28
2023-05-01T05:52:42.142Z,59.97
2023-05-01T05:55:09.583Z,61.73
2023-05-01T05:57:37.775Z,60.03
2023-05-01T06:00:05.766Z,60.17
2023-05-01T06:02:32.953Z,64.13
2023-05-01T06:05:00.014Z,61.87
2023-05-01T06:07:28.360Z,62.00
2023-05-01T06:09:55.943Z,64.87
2023-05-01T06:12:23.111Z,64.27
2023-05-01T06:14:50.624Z,62.15
2023-05-01T06:17:17.646Z,65.60
2023-05-01T06:19:44.580Z,61.58
2023-05-01T06:22:11.554Z,57.43
2023-05-01T06:24:39.804Z,59.13
2023-05-01T06:27:06.862Z,65.53
2023-05-01T06:29:33.800Z,60.05
2023-05-01T06:32:00.916Z,61.97
2023-05-01T06:34:27.846Z,62.05
2023-05-01T06:36:54.943Z,57.22
2023-05-01T06:39:21.939Z,58.70
2023-05-01T06:41:49.279Z,63.90
2023-05-01T06:44:16.933Z,54.85
2023-05-01T06:46:43.887Z,55.88
2023-05-01T06:49:11.120Z,57.85
2023-05-01T06:51:38.201Z,50.78
2023-05-01T06:54:05.296Z,53.50
2023-05-01T06:56:32.796Z,50.22
2023-05-01T06:58:59.656Z,51.22
2023-05-01T07:01:26.823Z,51.72
2023-05-01T07:03:53.809Z,51.65
2023-05-01T07:06:20.825Z,49.17
2023-05-01T07:08:49.176Z,49.63
2023-05-01T07:11:16.195Z,53.47
2023-05-01T07:13:43.126Z,47.90
2023-05-01T07:16:10.166Z,52.35
2023-05-01T07:18:37.915Z,46.60
2023-05-01T07:21:05.532Z,50.03
2023-05-01T07:23:32.509Z,49.42
2023-05-01T07:25:59.493Z,46.67
2023-05-01T07:28:26.418Z,43.35
2023-05-01T07:30:53.356Z,46.30
2023-05-01T07:33:20.441Z,43.42
2023-05-01T07:35:47.714Z,46.00
2023-05-01T07:38:16.797Z,44.13
2023-05-01T07:40:43.909Z,44.22
2023-05-01T07:43:11.807Z,41.78
2023-05-01T07:45:40.014Z,41.40
2023-05-01T07:48:07.230Z,43.72
2023-05-01T07:50:34.215Z,41.08
2023-05-01T07:53:01.179Z,43.17
2023-05-01T07:55:28.367Z,41.72
2023-05-01T07:57:55.350Z,37.08
2023-05-01T08:00:22.419Z,37.28
2023-05-01T08:02:49.462Z,38.47
2023-05-01T08:05:16.430Z,37.13
2023-05-01T08:07:43.415Z,39.63
2023-05-01T08:10:10.714Z,39.83
2023-05-01T08:12:37.712Z,41.83
2023-05-01T08:15:05.431Z,39.40
2023-05-01T08:17:32.415Z,37.28
2023-05-01T08:20:00.704Z,39.55
2023-05-01T08:22:27.794Z,40.65
2023-05-01T08:24:55.338Z,37.28
2023-05-01T08:27:22.486Z,37.85
2023-05-01T08:29:49.755Z,32.88
2023-05-01T08:32:18.700Z,41.75
2023-05-01T08:34:46.442Z,35.33
2023-05-01T08:37:13.415Z,33.42
2023-05-01T08:39:40.433Z,35.00
2023-05-01T08:42:08.303Z,35.25
2023-05-01T08:44:39.892Z,36.05
2023-05-01T08:47:17.289Z,35.10
2023-05-01T08:49:46.112Z,36.65
2023-05-01T08:52:15.427Z,37.83
2023-05-01T08:54:48.499Z,31.25
2023-05-01T08:57:16.055Z,33.05
2023-05-01T08:59:45.196Z,27.92
2023-05-01T09:02:12.394Z,30.65
2023-05-01T09:04:41.160Z,31.77
2023-05-01T09:07:09.499Z,32.70
2023-05-01T09:09:37.159Z,26.77
2023-05-01T09:12:27.131Z,28.55
2023-05-01T09:14:56.612Z,27.67
2023-05-01T09:17:25.078Z,33.83
2023-05-01T09:19:52.627Z,29.10
2023-05-01T09:22:20.500Z,25.42
2023-05-01T09:24:47.458Z,27.27
2023-05-01T09:27:15.300Z,24.77
2023-05-01T09:29:45.962Z,28.88
2023-05-01T09:32:28.441Z,27.67
2023-05-01T09:35:09.753Z,28.65
2023-05-01T09:37:36.831Z,28.38
2023-05-01T09:40:11.952Z,31.35
2023-05-01T09:42:53.078Z,37.15
2023-05-01T09:45:20.724Z,30.35
2023-05-01T09:47:48.665Z,29.23
2023-05-01T09:50:34.516Z,28.75
2023-05-01T09:53:04.816Z,33.30
2023-05-01T09:55:32.901Z,33.33
2023-05-01T09:57:59.991Z,31.40
2023-05-01T10:00:27.636Z,33.97
2023-05-01T10:02:56.113Z,30.98
2023-05-01T10:05:23.969Z,31.65
2023-05-01T10:08:02.378Z,33.17
2023-05-01T10:10:29.756Z,33.22
2023-05-01T10:12:57.002Z,30.92
2023-05-01T10:15:36.506Z,36.17
2023-05-01T10:18:05.174Z,28.90
2023-05-01T10:20:32.748Z,28.90
2023-05-01T10:23:02.646Z,25.13
2023-05-01T10:25:30.371Z,29.08
2023-05-01T10:27:57.912Z,30.80
2023-05-01T10:30:26.719Z,28.55
2023-05-01T10:32:53.751Z,26.67
2023-05-01T10:35:27.305Z,23.75
2023-05-01T10:38:07.157Z,30.75
2023-05-01T10:40:40.317Z,26.02
2023-05-01T10:43:26.292Z,28.50
2023-05-01T10:46:15.498Z,24.75
2023-05-01T10:48:42.510Z,29.60
2023-05-01T10:51:21.385Z,25.98
2023-05-01T10:54:10.532Z,25.08
2023-05-01T10:56:37.427Z,30.42
2023-05-01T10:59:04.993Z,33.28
2023-05-01T11:01:36.592Z,25.08
2023-05-01T11:04:11.377Z,24.33
2023-05-01T11:06:38.451Z,23.40
2023-05-01T11:09:43.616Z,20.80
2023-05-01T11:12:16.886Z,23.45
2023-05-01T11:14:57.467Z,49.90
2023-05-01T11:17:43.082Z,31.98
2023-05-01T11:20:11.106Z,25.65
2023-05-01T11:22:47.266Z,23.95
2023-05-01T11:25:23.278Z,25.38
2023-05-01T11:27:56.296Z,29.67
2023-05-01T11:30:23.490Z,26.33
2023-05-01T11:32:52.006Z,30.95
2023-05-01T11:35:24.397Z,30.15
2023-05-01T11:37:51.762Z,42.83
2023-05-01T11:40:27.091Z,26.73
2023-05-01T11:43:05.978Z,33.55
2023-05-01T11:45:34.871Z,29.67
2023-05-01T11:48:05.540Z,29.38
2023-05-01T11:50:39.789Z,33.67
2023-05-01T11:53:17.737Z,28.75
2023-05-01T11:55:45.678Z,29.77
2023-05-01T11:58:13.476Z,27.83
2023-05-01T12:00:43.655Z,24.90
2023-05-01T12:03:14.076Z,26.23
2023-05-01T12:05:45.580Z,26.63
2023-05-01T12:08:22.248Z,24.90
2023-05-01T12:10:58.035Z,27.70
2023-05-01T12:13:27.035Z,27.05
2023-05-01T12:15:56.369Z,23.70
2023-05-01T12:18:23.711Z,21.60
2023-05-01T12:20:54.374Z,17.30
2023-05-01T12:23:35.997Z,21.02
2023-05-01T12:26:16.419Z,24.08
2023-05-01T12:29:05.583Z,22.40
2023-05-01T12:31:33.796Z,21.92
2023-05-01T12:34:06.625Z,23.27
2023-05-01T12:36:36.581Z,22.85
2023-05-01T12:39:14.629Z,23.98
2023-05-01T12:41:43.488Z,26.05
2023-05-01T12:44:27.401Z,25.20
2023-05-01T12:47:07.332Z,29.67
2023-05-01T12:49:37.102Z,27.05
2023-05-01T12:52:08.109Z,24.58
2023-05-01T12:54:38.121Z,24.02
2023-05-01T12:57:10.964Z,23.85
2023-05-01T12:59:40.017Z,22.75
2023-05-01T13:02:15.037Z,24.30
2023-05-01T13:04:43.870Z,23.10
2023-05-01T13:07:19.831Z,24.27
2023-05-01T13:09:58.675Z,23.67
2023-05-01T13:12:28.055Z,21.92
2023-05-01T13:14:55.353Z,23.80
2023-05-01T13:17:27.929Z,22.48
2023-05-01T13:19:57.064Z,22.45
2023-05-01T13:22:37.493Z,22.13
2023-05-01T13:25:20.607Z,24.10
2023-05-01T13:27:53.302Z,22.42
2023-05-01T13:30:30.892Z,20.50
2023-05-01T13:32:57.933Z,23.55
2023-05-01T13:35:26.939Z,26.73
2023-05-01T13:37:54.532Z,27.08
2023-05-01T13:40:22.246Z,27.05
2023-05-01T13:42:53.021Z,25.80
2023-05-01T13:45:23.686Z,26.80
2023-05-01T13:47:52.081Z,26.42
2023-05-01T13:50:19.342Z,25.40
2023-05-01T13:52:46.336Z,25.20
2023-05-01T13:55:14.769Z,24.88
2023-05-01T13:57:43.208Z,27.27
2023-05-01T14:00:17.812Z,21.40
2023-05-01T14:02:48.725Z,24.13
2023-05-01T14:05:16.750Z,21.98
2023-05-01T14:08:02.466Z,21.70
2023-05-01T14:10:29.773Z,22.00
2023-05-01T14:12:59.830Z,20.60
2023-05-01T14:15:28.777Z,22.55
2023-05-01T14:17:55.868Z,23.67
2023-05-01T14:20:25.816Z,21.92
2023-05-01T14:22:53.574Z,21.15
2023-05-01T14:25:34.074Z,15.95
2023-05-01T14:28:08.126Z,15.30
2023-05-01T14:30:38.666Z,15.48
2023-05-01T14:33:15.662Z,16.52
2023-05-01T14:36:02.934Z,15.43
2023-05-01T14:38:38.622Z,15.25
2023-05-01T14:41:06.041Z,12.05
2023-05-01T14:43:34.263Z,18.00
2023-05-01T14:46:01.375Z,17.67
2023-05-01T14:48:35.996Z,16.60
2023-05-01T14:51:06.469Z,16.13
2023-05-01T14:53:33.626Z,13.15
2023-05-01T14:56:00.731Z,14.73
2023-05-01T14:58:27.722Z,17.75
2023-05-01T15:00:55.167Z,13.93
2023-05-01T15:03:22.283Z,15.13
2023-05-01T15:05:49.371Z,14.07
2023-05-01T15:08:16.749Z,12.27
2023-05-01T15:10:44.998Z,15.77
2023-05-01T15:13:12.099Z,14.70
2023-05-01T15:15:39.113Z,7.88
2023-05-01T15:18:06.871Z,14.23
2023-05-01T15:20:33.857Z,15.52
2023-05-01T15:23:01.004Z,14.68
2023-05-01T15:25:28.220Z,14.80
2023-05-01T15:27:55.687Z,13.85
2023-05-01T15:30:22.943Z,16.10
2023-05-01T15:32:50.127Z,14.00
2023-05-01T15:35:17.794Z,13.65
2023-05-01T15:37:44.781Z,14.48
2023-05-01T15:40:11.995Z,11.95
2023-05-01T15:42:39.833Z,19.75
2023-05-01T15:45:08.065Z,13.50
2023-05-01T15:47:35.071Z,15.85
2023-05-01T15:50:02.348Z,13.32
2023-05-01T15:52:29.576Z,12.60
2023-05-01T15:54:56.576Z,13.15
2023-05-01T15:57:23.643Z,15.18
2023-05-01T15:59:53.990Z,15.93
2023-05-01T16:02:21.637Z,14.23
2023-05-01T16:04:48.900Z,12.38
2023-05-01T16:07:16.032Z,10.68
2023-05-01T16:09:43.035Z,14.50
2023-05-01T16:12:10.063Z,11.80
2023-05-01T16:14:41.181Z,10.27
2023-05-01T16:17:08.388Z,13.80
2023-05-01T16:19:37.031Z,14.70
2023-05-01T16:22:06.763Z,15.27
2023-05-01T16:24:34.763Z,16.92
2023-05-01T16:27:02.211Z,13.48
2023-05-01T16:29:32.490Z,13.32
2023-05-01T16:31:59.889Z,15.43
2023-05-01T16:34:27.590Z,13.93
2023-05-01T16:36:56.427Z,15.23
2023-05-01T16:39:23.635Z,15.60
2023-05-01T16:41:56.732Z,13.90
2023-05-01T16:44:23.711Z,14.48
2023-05-01T16:46:56.461Z,18.83
2023-05-01T16:49:27.285Z,14.70
2023-05-01T16:51:57.057Z,17.80
2023-05-01T16:54:26.922Z,14.52
2023-05-01T16:56:53.945Z,17.00
2023-05-01T16:59:20.932Z,16.25
2023-05-01T17:01:47.928Z,19.52
2023-05-01T17:04:15.288Z,16.30
2023-05-01T17:06:42.363Z,16.60
2023-05-01T17:09:09.357Z,16.13
2023-05-01T17:11:36.371Z,19.35
2023-05-01T17:14:03.702Z,16.55
2023-05-01T17:16:32.413Z,16.48
2023-05-01T17:18:59.432Z,16.60
2023-05-01T17:21:28.295Z,17.98
2023-05-01T17:23:55.259Z,20.95
2023-05-01T17:26:22.912Z,19.20
2023-05-01T17:28:50.594Z,18.85
2023-05-01T17:31:18.774Z,22.17
2023-05-01T17:33:47.466Z,18.52
2023-05-01T17:36:14.476Z,19.98
2023-05-01T17:38:41.855Z,17.35
2023-05-01T17:41:08.801Z,19.42
2023-05-01T17:43:35.791Z,21.45
2023-05-01T17:46:04.882Z,17.73
2023-05-01T17:48:31.982Z,19.05
2023-05-01T17:50:59.094Z,19.80
2023-05-01T17:53:26.118Z,19.20
2023-05-01T17:55:53.212Z,22.63
2023-05-01T17:58:20.894Z,17.75
2023-05-01T18:00:48.193Z,17.40
2023-05-01T18:03:15.241Z,19.30
2023-05-01T18:05:42.423Z,15.93
2023-05-01T18:08:09.374Z,16.92
2023-05-01T18:10:36.345Z,18.35
2023-05-01T18:13:03.341Z,16.27
2023-05-01T18:15:30.342Z,17.33
2023-05-01T18:17:57.356Z,15.30
2023-05-01T18:20:24.648Z,15.85
2023-05-01T18:22:54.222Z,13.35
2023-05-01T18:25:21.248Z,15.13
2023-05-01T18:27:49.153Z,16.38
2023-05-01T18:30:17.005Z,13.48
2023-05-01T18:32:47.507Z,16.55
2023-05-01T18:35:17.184Z,15.00
2023-05-01T18:37:44.341Z,14.75
2023-05-01T18:40:12.648Z,15.88
2023-05-01T18:42:43.119Z,16.48
2023-05-01T18:45:10.542Z,15.02
2023-05-01T18:47:37.540Z,18.17
2023-05-01T18:50:06.283Z,15.30
2023-05-01T18:52:33.318Z,13.68
2023-05-01T18:55:00.356Z,15.15
2023-05-01T18:57:28.914Z,12.48
2023-05-01T18:59:56.037Z,13.60
2023-05-01T19:02:23.237Z,9.02
2023-05-01T19:04:57.353Z,14.52
2023-05-01T19:07:26.554Z,12.70
2023-05-01T19:09:53.693Z,16.63
2023-05-01T19:12:20.728Z,16.95
2023-05-01T19:14:47.763Z,15.27
2023-05-01T19:17:14.844Z,17.35
2023-05-01T19:19:41.855Z,21.92
2023-05-01T19:22:08.911Z,16.65
2023-05-01T19:24:35.894Z,13.70
2023-05-01T19:27:03.363Z,17.40
2023-05-01T19:29:33.474Z,13.38
2023-05-01T19:32:00.661Z,18.55
2023-05-01T19:34:28.449Z,18.27
2023-05-01T19:36:57.092Z,18.27
2023-05-01T19:39:24.344Z,24.33
2023-05-01T19:41:52.023Z,17.37
2023-05-01T19:44:19.136Z,23.48
2023-05-01T19:46:46.146Z,21.40
2023-05-01T19:49:13.129Z,20.60
2023-05-01T19:51:40.136Z,22.75
2023-05-01T19:54:07.074Z,19.43
2023-05-01T19:56:34.699Z,20.93
2023-05-01T19:59:01.641Z,24.57
2023-05-01T20:01:31.341Z,23.00
2023-05-01T20:03:58.484Z,21.93
2023-05-01T20:06:25.607Z,25.73
2023-05-01T20:08:52.715Z,22.80
2023-05-01T20:11:19.715Z,22.53
2023-05-01T20:13:46.992Z,20.40
2023-05-01T20:16:13.972Z,20.83
2023-05-01T20:18:40.979Z,18.20
2023-05-01T20:21:07.951Z,21.83
2023-05-01T20:23:34.996Z,24.43
2023-05-01T20:26:02.041Z,24.27
2023-05-01T20:28:29.296Z,26.40
2023-05-01T20:30:56.983Z,21.77
2023-05-01T20:33:24.642Z,21.63
2023-05-01T20:35:51.736Z,23.17
2023-05-01T20:38:18.693Z,20.37
2023-05-01T20:40:45.621Z,24.73
2023-05-01T20:43:12.975Z,23.03
2023-05-01T20:45:40.187Z,22.50
2023-05-01T20:48:07.483Z,24.70
2023-05-01T20:50:35.495Z,24.00
2023-05-01T20:53:02.529Z,24.30
2023-05-01T20:55:30.018Z,29.13
2023-05-01T20:57:57.012Z,32.00
2023-05-01T21:00:23.985Z,22.00
2023-05-01T21:02:52.773Z,23.53
2023-05-01T21:05:20.108Z,25.90
2023-05-01T21:07:48.017Z,23.27
2023-05-01T21:10:16.617Z,24.50
2023-05-01T21:12:43.881Z,20.67
2023-05-01T21:15:11.882Z,23.53
2023-05-01T21:17:40.773Z,24.57
2023-05-01T21:20:17.189Z,29.70
2023-05-01T21:22:45.713Z,25.60
2023-05-01T21:25:19.814Z,31.23
2023-05-01T21:27:46.754Z,25.10
2023-05-01T21:30:18.204Z,20.73
2023-05-01T21:32:45.394Z,26.63
2023-05-01T21:35:16.607Z,25.70
2023-05-01T21:37:45.099Z,27.10
2023-05-01T21:40:14.592Z,28.90
2023-05-01T21:42:41.755Z,26.17
2023-05-01T21:45:14.364Z,25.30
2023-05-01T21:47:47.875Z,25.90
2023-05-01T21:50:18.083Z,30.97
2023-05-01T21:52:48.828Z,28.43
2023-05-01T21:55:22.263Z,30.63
2023-05-01T21:57:53.357Z,30.43
2023-05-01T22:00:21.476Z,32.47
2023-05-01T22:02:50.320Z,30.23
2023-05-01T22:05:22.557Z,26.07
2023-05-01T22:07:52.196Z,25.50
2023-05-01T22:10:20.242Z,29.80
2023-05-01T22:12:49.241Z,24.97
2023-05-01T22:15:16.828Z,29.03
2023-05-01T22:17:45.049Z,26.13
2023-05-01T22:20:12.471Z,29.43
2023-05-01T22:22:41.500Z,31.50
2023-05-01T22:25:10.158Z,29.13
2023-05-01T22:27:37.784Z,25.43
2023-05-01T22:30:06.245Z,26.90
2023-05-01T22:32:33.776Z,26.13
2023-05-01T22:35:01.009Z,33.97
2023-05-01T22:37:28.041Z,28.27
2023-05-01T22:39:55.070Z,23.93
2023-05-01T22:42:23.060Z,36.33
2023-05-01T22:44:50.130Z,33.27
2023-05-01T22:47:17.529Z,26.00
2023-05-01T22:49:44.536Z,32.03
2023-05-01T22:52:11.525Z,32.53
2023-05-01T22:54:38.449Z,30.30
2023-05-01T22:57:05.434Z,31.27
2023-05-01T22:59:32.447Z,28.77
2023-05-01T23:02:04.006Z,30.17
2023-05-01T23:04:32.369Z,30.77
2023-05-01T23:06:59.435Z,26.30
2023-05-01T23:09:26.531Z,30.83
2023-05-01T23:11:53.631Z,31.00
2023-05-01T23:14:20.754Z,29.03
2023-05-01T23:16:47.934Z,33.73
2023-05-01T23:19:24.092Z,35.93
2023-05-01T23:22:09.807Z,32.63
2023-05-01T23:24:49.281Z,31.50
2023-05-01T23:27:18.132Z,38.00
2023-05-01T23:29:58.702Z,35.60
2023-05-01T23:32:29.468Z,33.07
2023-05-01T23:35:14.097Z,35.70
2023-05-01T23:37:41.836Z,30.57
2023-05-01T23:40:09.597Z,35.70
2023-05-01T23:42:38.253Z,42.20
2023-05-01T23:45:07.273Z,38.03
2023-05-01T23:47:34.444Z,39.40
2023-05-01T23:50:02.333Z,43.03
2023-05-01T23:52:29.629Z,40.67
2023-05-01T23:54:56.589Z,41.70
2023-05-01T23:57:23.615Z,44.03
2023-05-01T23:59:50.565Z,36.73
